Time;durP1;ratioP1;P1;durP2;ratioP2;P2;SDS_P1;SDS_P2;PMS_P1;PMS_P2;Temp;Humidity;BMP_temperature;BMP_pressure;BME280_temperature;BME280_humidity;BME280_pressure;Samples;Min_cycle;Max_cycle;Signal;HPM_P1;HPM_P2
2022/01/17 00:01:39;;;;;;;40.70;15.73;;;7.80;99.90;;;;;;5023620;28;20045;-87
2022/01/17 00:04:06;;;;;;;30.70;14.05;;;7.80;99.90;;;;;;5032607;28;20032;-85
2022/01/17 00:06:44;;;;;;;30.58;12.70;;;7.80;99.90;;;;;;5032250;28;20025;-88
2022/01/17 00:09:20;;;;;;;;;;;;;;;;;;;;;
2022/01/17 00:21:02;;;;;;;;;;;;;;;;;;;;;
2022/01/17 00:23:43;;;;;;;34.42;14.52;;;7.70;99.90;;;;;;5053548;28;20048;-85
2022/01/17 00:26:41;;;;;;;29.05;12.27;;;7.80;99.90;;;;;;5069224;28;20122;-86
2022/01/17 00:29:23;;;;;;;31.05;13.27;;;7.80;99.90;;;;;;5052584;28;20032;-86
2022/01/17 00:32:34;;;;;;;20.85;11.63;;;7.80;99.90;;;;;;5069495;28;20032;-86
2022/01/17 00:35:23;;;;;;;36.67;13.90;;;7.80;99.90;;;;;;5042187;28;20056;-89
2022/01/17 00:37:52;;;;;;;34.88;11.93;;;7.80;99.90;;;;;;5052377;28;20500;-85
2022/01/17 00:40:29;;;;;;;;;;;;;;;;;;;;;
2022/01/17 00:42:58;;;;;;;20.33;10.43;;;7.80;99.90;;;;;;5053419;28;20033;-86
2022/01/17 00:45:31;;;;;;;25.58;11.05;;;7.70;99.90;;;;;;5052509;28;20033;-85
2022/01/17 00:48:29;;;;;;;23.63;11.07;;;7.70;99.90;;;;;;5034617;28;20501;-85
2022/01/17 00:51:02;;;;;;;28.55;10.98;;;7.70;99.90;;;;;;5038899;28;20029;-86
2022/01/17 00:53:51;;;;;;;28.25;10.40;;;7.80;99.90;;;;;;5035182;28;20044;-86
2022/01/17 00:59:37;;;;;;;25.67;8.82;;;7.80;99.90;;;;;;5041621;28;20035;-85
2022/01/17 01:02:27;;;;;;;;;;;;;;;;;;;;;
2022/01/17 01:05:17;;;;;;;;;;;7.70;99.90;;;;;;5053377;28;20024;-86
2022/01/17 01:15:09;;;;;;;21.25;6.95;;;7.70;99.90;;;;;;5000594;28;20414;-89
2022/01/17 01:17:55;;;;;;;20.88;6.45;;;7.70;99.90;;;;;;5046368;28;20041;-84
2022/01/17 01:21:10;;;;;;;19.75;4.55;;;7.70;99.90;;;;;;5051582;28;20036;-86
2022/01/17 01:29:29;;;;;;;16.52;3.25;;;7.60;99.90;;;;;;5059362;28;20048;-85
2022/01/17 01:32:40;;;;;;;;;;;;;;;;;;;;;
2022/01/17 01:35:14;;;;;;;;;;;7.60;99.90;;;;;;5057350;28;20108;-87
2022/01/17 01:37:53;;;;;;;14.25;3.17;;;7.60;99.90;;;;;;5056486;28;19955;-85
2022/01/17 01:40:21;;;;;;;16.45;3.03;;;7.60;99.90;;;;;;5056786;28;20047;-85
2022/01/17 01:53:26;;;;;;;20.38;3.35;;;7.50;99.90;;;;;;4995604;28;20073;-85
2022/01/17 01:56:07;;;;;;;;;;;;;;;;;;;;;
2022/01/17 01:59:10;;;;;;;20.63;2.88;;;7.50;99.90;;;;;;4975480;28;20030;-85
2022/01/17 02:01:49;;;;;;;14.00;2.60;;;7.50;99.90;;;;;;5009450;28;20048;-86
2022/01/17 02:04:39;;;;;;;21.83;3.60;;;7.50;99.90;;;;;;5055229;28;20472;-86
2022/01/17 02:07:07;;;;;;;12.38;2.50;;;7.50;99.90;;;;;;5055097;28;20037;-87
2022/01/17 02:09:59;;;;;;;18.40;3.47;;;7.50;99.90;;;;;;5055686;28;20085;-86
2022/01/17 02:12:28;;;;;;;12.98;2.97;;;7.50;99.90;;;;;;5038364;28;20075;-87
2022/01/17 02:15:13;;;;;;;17.80;4.80;;;7.50;99.90;;;;;;5055851;28;20048;-88
2022/01/17 02:21:10;;;;;;;14.13;3.35;;;7.50;99.90;;;;;;5046671;28;20033;-86
2022/01/17 02:23:53;;;;;;;;;;;;;;;;;;;;;
2022/01/17 02:32:58;;;;;;;11.77;2.67;;;7.50;99.90;;;;;;4994088;28;20131;-87
2022/01/17 02:35:45;;;;;;;12.80;2.65;;;7.50;99.90;;;;;;4993363;28;20022;-87
2022/01/17 02:38:22;;;;;;;20.08;3.03;;;7.40;99.90;;;;;;4993480;28;20084;-86
2022/01/17 02:41:03;;;;;;;19.30;3.72;;;7.40;99.90;;;;;;5040815;28;20053;-89
2022/01/17 02:43:37;;;;;;;16.27;2.78;;;7.40;99.90;;;;;;5038255;28;20028;-86
2022/01/17 02:48:46;;;;;;;;;;;;;;;;;;;;;
2022/01/17 02:51:57;;;;;;;16.05;2.55;;;7.40;99.90;;;;;;5055547;28;20124;-84
2022/01/17 03:00:42;;;;;;;;;;;7.30;99.90;;;;;;4994405;28;20029;-85
2022/01/17 03:03:37;;;;;;;13.20;2.60;;;7.30;99.90;;;;;;5050801;28;19912;-85
2022/01/17 03:06:08;;;;;;;14.23;2.28;;;7.30;99.90;;;;;;5054199;28;20025;-85
2022/01/17 03:09:02;;;;;;;12.93;1.92;;;7.30;99.90;;;;;;5055668;28;20025;-85
2022/01/17 03:11:51;;;;;;;9.95;2.17;;;7.30;99.90;;;;;;5053813;28;20068;-86
2022/01/17 03:14:40;;;;;;;17.70;3.00;;;7.30;99.90;;;;;;5053483;28;20045;-84
2022/01/17 03:17:30;;;;;;;;;;;;;;;;;;;;;
2022/01/17 03:20:04;;;;;;;20.27;2.20;;;7.30;99.90;;;;;;5039371;28;20107;-85
2022/01/17 03:22:48;;;;;;;12.88;2.70;;;7.20;99.90;;;;;;5037531;28;20132;-86
2022/01/17 03:25:17;;;;;;;11.10;1.80;;;7.20;99.90;;;;;;5039195;28;20036;-85
2022/01/17 03:27:50;;;;;;;13.93;1.80;;;7.20;99.90;;;;;;5037123;28;20035;-85
2022/01/17 03:30:51;;;;;;;;;;;;;;;;;;;;;
2022/01/17 03:33:19;;;;;;;;;;;7.20;99.90;;;;;;5034021;28;20037;-89
2022/01/17 03:36:14;;;;;;;13.90;2.15;;;7.20;99.90;;;;;;5035188;28;19905;-85
2022/01/17 03:38:42;;;;;;;13.73;2.17;;;7.20;99.90;;;;;;5007959;28;20504;-89
2022/01/17 03:41:16;;;;;;;12.70;2.17;;;7.10;99.90;;;;;;5037430;28;20044;-85
2022/01/17 03:43:51;;;;;;;12.27;2.50;;;7.10;99.90;;;;;;5037490;28;20028;-85
2022/01/17 03:46:32;;;;;;;16.23;2.20;;;7.10;99.90;;;;;;5055225;28;20025;-85
2022/01/17 03:49:00;;;;;;;10.48;2.05;;;7.00;99.90;;;;;;5052984;28;20071;-85
2022/01/17 03:51:46;;;;;;;;;;;;;;;;;;;;;
2022/01/17 03:54:15;;;;;;;17.95;2.45;;;7.00;99.90;;;;;;5053632;28;20013;-85
2022/01/17 03:56:47;;;;;;;11.63;2.10;;;7.00;99.90;;;;;;5036157;28;20025;-88
2022/01/17 03:59:30;;;;;;;12.75;1.95;;;7.00;99.90;;;;;;5035832;28;20056;-87
2022/01/17 04:02:24;;;;;;;12.65;2.05;;;6.90;99.90;;;;;;5053100;28;20090;-87
2022/01/17 04:04:53;;;;;;;15.48;1.80;;;6.90;99.90;;;;;;5035112;28;20028;-85
2022/01/17 04:07:24;;;;;;;18.25;2.58;;;6.90;99.90;;;;;;5053018;28;20048;-85
2022/01/17 04:09:53;;;;;;;14.27;2.13;;;6.90;99.90;;;;;;5036189;28;20039;-87
2022/01/17 04:12:36;;;;;;;13.95;2.30;;;6.80;99.90;;;;;;5052750;28;20021;-84
2022/01/17 04:15:12;;;;;;;17.67;1.98;;;6.80;99.90;;;;;;5022488;28;20153;-86
2022/01/17 04:17:40;;;;;;;16.50;3.90;;;6.80;99.90;;;;;;5053981;28;20040;-85
2022/01/17 04:20:28;;;;;;;10.45;2.10;;;6.70;99.90;;;;;;5053434;28;20486;-85
2022/01/17 04:23:10;;;;;;;11.90;2.15;;;6.70;99.90;;;;;;5052979;28;20086;-85
2022/01/17 04:25:41;;;;;;;11.70;1.95;;;6.70;99.90;;;;;;5053660;28;20082;-86
2022/01/17 04:28:30;;;;;;;16.08;3.55;;;6.60;99.90;;;;;;5070279;28;20171;-86
2022/01/17 04:31:09;;;;;;;13.95;2.03;;;6.60;99.90;;;;;;5054178;28;20079;-86
2022/01/17 04:33:56;;;;;;;14.27;2.13;;;6.60;99.90;;;;;;5038885;28;20028;-92
2022/01/17 04:36:37;;;;;;;16.25;2.55;;;6.60;99.90;;;;;;5069904;28;20128;-85
2022/01/17 04:39:15;;;;;;;12.10;1.80;;;6.60;99.90;;;;;;5037772;28;20031;-85
2022/01/17 04:41:56;;;;;;;10.77;2.30;;;6.60;99.90;;;;;;5036896;28;20037;-85
2022/01/17 04:47:36;;;;;;;21.10;3.10;;;6.60;99.90;;;;;;5052867;28;20044;-86
2022/01/17 04:56:42;;;;;;;;;;;;;;;;;;;;;
2022/01/17 04:59:29;;;;;;;11.70;2.13;;;6.50;99.90;;;;;;5036747;28;20475;-89
2022/01/17 05:02:10;;;;;;;12.40;1.70;;;6.50;99.90;;;;;;5055619;28;20085;-85
2022/01/17 05:04:49;;;;;;;13.18;2.10;;;6.50;99.90;;;;;;5056738;28;20383;-84
2022/01/17 05:07:25;;;;;;;12.05;1.60;;;6.60;99.90;;;;;;5040489;28;20037;-85
2022/01/17 05:10:18;;;;;;;11.15;1.83;;;6.50;99.90;;;;;;5056684;28;20538;-90
2022/01/17 05:13:10;;;;;;;19.05;2.78;;;6.50;99.90;;;;;;5056751;28;20441;-86
2022/01/17 05:16:29;;;;;;;18.50;2.25;;;6.50;99.90;;;;;;5055904;28;20099;-85
2022/01/17 05:21:32;;;;;;;14.55;2.28;;;6.60;99.90;;;;;;5042219;28;20514;-85
2022/01/17 05:26:58;;;;;;;15.25;2.40;;;6.50;99.90;;;;;;5056007;28;20041;-85
2022/01/17 05:29:26;;;;;;;13.43;1.88;;;6.50;99.90;;;;;;5053065;28;20393;-85
2022/01/17 05:31:58;;;;;;;13.10;2.30;;;6.50;99.90;;;;;;5055106;28;20048;-85
2022/01/17 05:34:24;;;;;;;13.40;2.47;;;6.40;99.90;;;;;;5039494;28;20120;-86
2022/01/17 05:36:50;;;;;;;13.82;2.10;;;6.50;99.90;;;;;;5056060;28;20056;-86
2022/01/17 05:39:16;;;;;;;13.27;2.75;;;6.40;99.90;;;;;;5039425;28;20055;-84
2022/01/17 05:41:42;;;;;;;13.40;2.20;;;6.40;99.90;;;;;;5057021;28;20029;-84
2022/01/17 05:44:13;;;;;;;10.95;2.35;;;6.40;99.90;;;;;;5038618;28;20033;-83
2022/01/17 05:46:39;;;;;;;;;;;6.40;99.90;;;;;;5055481;28;20046;-85
2022/01/17 05:49:05;;;;;;;10.27;2.15;;;6.40;99.90;;;;;;5071753;28;19909;-85
2022/01/17 05:51:33;;;;;;;9.65;2.45;;;6.30;99.90;;;;;;5055643;28;20024;-85
2022/01/17 05:53:59;;;;;;;14.60;2.35;;;6.30;99.90;;;;;;5038932;28;20036;-85
2022/01/17 05:56:25;;;;;;;14.68;2.97;;;6.30;99.90;;;;;;5054332;28;20037;-86
2022/01/17 05:58:51;;;;;;;9.02;2.90;;;6.30;99.90;;;;;;5056538;28;20048;-86
2022/01/17 06:01:17;;;;;;;15.07;3.22;;;6.30;99.90;;;;;;5038195;28;20029;-85
2022/01/17 06:03:42;;;;;;;19.92;4.38;;;6.30;99.90;;;;;;5071658;28;20025;-85
2022/01/17 06:06:08;;;;;;;14.32;3.60;;;6.30;99.90;;;;;;5055534;28;20031;-86
2022/01/17 06:08:34;;;;;;;15.65;4.25;;;6.30;99.90;;;;;;5039010;28;20029;-86
2022/01/17 06:11:03;;;;;;;19.67;4.28;;;6.30;99.90;;;;;;5056033;28;20036;-86
2022/01/17 06:13:32;;;;;;;16.75;5.45;;;6.30;99.90;;;;;;5037422;28;20053;-85
2022/01/17 06:15:58;;;;;;;25.58;6.72;;;6.30;99.90;;;;;;5072172;28;20017;-92
2022/01/17 06:18:24;;;;;;;13.60;4.80;;;6.30;99.90;;;;;;5056324;28;20051;-85
2022/01/17 06:20:52;;;;;;;18.60;6.00;;;6.30;99.90;;;;;;5038861;28;20037;-85
2022/01/17 06:23:21;;;;;;;17.38;5.65;;;6.30;99.90;;;;;;5056245;28;20056;-84
2022/01/17 06:26:00;;;;;;;;;;;;;;;;;;;;;
2022/01/17 06:28:35;;;;;;;18.85;5.25;;;6.30;99.90;;;;;;5057265;28;20036;-86
2022/01/17 06:31:01;;;;;;;24.05;7.00;;;6.30;99.90;;;;;;5024076;28;20071;-86
2022/01/17 06:33:27;;;;;;;19.00;5.90;;;6.30;99.90;;;;;;5072620;28;20025;-88
2022/01/17 06:35:53;;;;;;;13.07;5.75;;;6.20;99.90;;;;;;5056539;28;20017;-86
2022/01/17 06:38:18;;;;;;;15.13;5.65;;;6.20;99.90;;;;;;5056369;28;20019;-84
2022/01/17 06:40:48;;;;;;;17.15;5.63;;;6.30;99.90;;;;;;5038537;28;20086;-85
2022/01/17 06:43:23;;;;;;;22.92;6.00;;;6.20;99.90;;;;;;5071791;28;20071;-87
2022/01/17 06:45:54;;;;;;;15.35;5.68;;;6.20;99.90;;;;;;5057372;28;20032;-87
2022/01/17 06:48:20;;;;;;;16.88;5.45;;;6.20;99.90;;;;;;5055005;28;20029;-88
2022/01/17 06:50:46;;;;;;;18.42;7.38;;;6.20;99.90;;;;;;5073229;28;20028;-85
2022/01/17 06:53:29;;;;;;;16.25;5.90;;;6.20;99.90;;;;;;5056005;28;20041;-86
2022/01/17 06:55:56;;;;;;;18.08;6.65;;;6.10;99.90;;;;;;5054697;28;20478;-84
2022/01/17 06:58:23;;;;;;;19.95;6.35;;;6.10;99.90;;;;;;5056695;28;20028;-86
2022/01/17 07:00:49;;;;;;;19.85;6.65;;;6.10;99.90;;;;;;5040195;28;20455;-85
2022/01/17 07:04:00;;;;;;;16.33;6.90;;;6.10;99.90;;;;;;5055885;28;20029;-86
2022/01/17 07:06:46;;;;;;;22.40;7.70;;;6.10;99.90;;;;;;5064424;28;20490;-86
2022/01/17 07:09:43;;;;;;;27.52;9.48;;;6.10;99.90;;;;;;5054049;28;20017;-87
2022/01/17 07:12:15;;;;;;;22.85;7.63;;;6.10;99.90;;;;;;5024201;28;20027;-89
2022/01/17 07:15:25;;;;;;;21.90;9.55;;;6.10;99.90;;;;;;5020847;28;20149;-87
2022/01/17 07:17:51;;;;;;;22.20;9.25;;;6.10;99.90;;;;;;5033560;28;20040;-88
2022/01/17 07:20:17;;;;;;;20.42;9.35;;;6.10;99.90;;;;;;5034575;28;20026;-87
2022/01/17 07:22:42;;;;;;;19.00;7.70;;;6.10;99.90;;;;;;5033006;28;20471;-87
2022/01/17 07:25:09;;;;;;;21.50;9.27;;;6.20;99.90;;;;;;5017201;28;20048;-85
2022/01/17 07:27:36;;;;;;;20.23;9.40;;;6.20;99.90;;;;;;5035530;28;20459;-91
2022/01/17 07:30:05;;;;;;;26.15;9.60;;;6.20;99.90;;;;;;5037130;28;20447;-89
2022/01/17 07:32:31;;;;;;;15.63;8.65;;;6.20;99.90;;;;;;5035268;28;20049;-87
2022/01/17 07:34:57;;;;;;;21.70;9.85;;;6.20;99.90;;;;;;5034438;28;20087;-88
2022/01/17 07:37:23;;;;;;;28.75;11.55;;;6.20;99.90;;;;;;5032797;28;20028;-86
2022/01/17 07:39:49;;;;;;;22.35;10.43;;;6.30;99.90;;;;;;5016727;28;20489;-86
2022/01/17 07:42:15;;;;;;;30.55;11.88;;;6.30;99.90;;;;;;5016214;28;20177;-86
2022/01/17 07:44:43;;;;;;;27.30;12.00;;;6.30;99.90;;;;;;5016961;28;20064;-88
2022/01/17 07:47:16;;;;;;;28.50;10.75;;;6.30;99.90;;;;;;5017735;28;20025;-92
2022/01/17 07:49:44;;;;;;;20.77;11.45;;;6.30;99.90;;;;;;5018894;28;20088;-87
2022/01/17 07:52:11;;;;;;;24.08;12.02;;;6.30;99.90;;;;;;4984401;28;20041;-87
2022/01/17 07:54:43;;;;;;;29.10;13.02;;;6.30;99.90;;;;;;4984888;28;20048;-87
2022/01/17 07:57:11;;;;;;;31.05;12.80;;;6.30;99.90;;;;;;5018129;28;20025;-88
2022/01/17 07:59:37;;;;;;;27.83;12.40;;;6.30;99.90;;;;;;5000918;28;20028;-86
2022/01/17 08:02:03;;;;;;;29.60;12.68;;;6.30;99.90;;;;;;5017904;28;20033;-87
2022/01/17 08:04:29;;;;;;;30.70;13.23;;;6.40;99.90;;;;;;5018260;28;20043;-87
2022/01/17 08:06:57;;;;;;;27.55;13.90;;;6.40;99.90;;;;;;5033741;28;20053;-86
2022/01/17 08:09:32;;;;;;;31.10;12.82;;;6.40;99.90;;;;;;5012406;28;20055;-87
2022/01/17 08:11:59;;;;;;;33.80;14.18;;;6.40;99.90;;;;;;5028232;28;20045;-93
2022/01/17 08:14:25;;;;;;;33.95;14.02;;;6.40;99.90;;;;;;5033715;28;20491;-94
2022/01/17 08:16:52;;;;;;;29.10;13.40;;;6.40;99.90;;;;;;5035527;28;20079;-88
2022/01/17 08:19:18;;;;;;;35.40;13.90;;;6.50;99.90;;;;;;5020994;28;20017;-87
2022/01/17 08:21:46;;;;;;;33.25;14.80;;;6.50;99.90;;;;;;5053146;28;20036;-86
2022/01/17 08:24:11;;;;;;;31.58;15.10;;;6.50;99.90;;;;;;5052853;28;20044;-89
2022/01/17 08:26:42;;;;;;;36.22;14.82;;;6.50;99.90;;;;;;5053436;28;20383;-87
2022/01/17 08:29:09;;;;;;;32.47;15.20;;;6.50;99.90;;;;;;5036532;28;20017;-87
2022/01/17 08:31:35;;;;;;;30.13;14.30;;;6.50;99.90;;;;;;5051927;28;20036;-87
2022/01/17 08:34:00;;;;;;;25.42;14.25;;;6.60;99.90;;;;;;5053452;28;20036;-87
2022/01/17 08:36:26;;;;;;;28.17;13.93;;;6.60;99.90;;;;;;5037898;28;20509;-87
2022/01/17 08:38:53;;;;;;;35.30;13.43;;;6.60;99.90;;;;;;5039326;28;20120;-85
2022/01/17 08:41:19;;;;;;;29.02;14.05;;;6.60;99.90;;;;;;5073830;28;20037;-86
2022/01/17 08:43:46;;;;;;;31.73;14.68;;;6.60;99.90;;;;;;5056671;28;20037;-86
2022/01/17 08:46:12;;;;;;;38.72;15.35;;;6.60;99.90;;;;;;5073004;28;20470;-86
2022/01/17 08:48:39;;;;;;;28.30;12.93;;;6.60;99.90;;;;;;5039524;28;20102;-86
2022/01/17 08:51:05;;;;;;;30.10;12.63;;;6.60;99.90;;;;;;5072672;28;20378;-86
2022/01/17 08:53:32;;;;;;;35.10;13.93;;;6.70;99.90;;;;;;5056077;28;20029;-87
2022/01/17 08:55:58;;;;;;;28.48;12.88;;;6.70;99.90;;;;;;5057211;28;20122;-86
2022/01/17 08:58:24;;;;;;;24.02;12.27;;;6.70;99.90;;;;;;5057215;28;20109;-86
2022/01/17 09:00:50;;;;;;;27.02;12.15;;;6.70;99.90;;;;;;5052544;28;20382;-87
2022/01/17 09:03:19;;;;;;;30.40;11.95;;;6.70;99.90;;;;;;5057085;28;20048;-87
2022/01/17 09:05:45;;;;;;;30.05;11.75;;;6.80;99.90;;;;;;5057080;28;20021;-86
2022/01/17 09:08:11;;;;;;;26.40;11.55;;;6.80;99.90;;;;;;5072356;28;20025;-87
2022/01/17 09:10:38;;;;;;;25.95;11.18;;;6.80;99.90;;;;;;5072735;28;20371;-87
2022/01/17 09:13:07;;;;;;;24.88;10.93;;;6.80;99.90;;;;;;5057327;28;20025;-87
2022/01/17 09:15:33;;;;;;;28.58;12.10;;;6.80;99.90;;;;;;5056385;28;20053;-86
2022/01/17 09:17:59;;;;;;;25.13;10.73;;;6.90;99.90;;;;;;5056642;28;20033;-87
2022/01/17 09:20:25;;;;;;;22.85;11.40;;;6.90;99.90;;;;;;5072961;28;20050;-87
2022/01/17 09:22:53;;;;;;;30.15;10.43;;;6.90;99.90;;;;;;5073658;28;20110;-87
2022/01/17 09:25:19;;;;;;;29.63;11.52;;;6.90;99.90;;;;;;5060174;28;20033;-87
2022/01/17 09:27:44;;;;;;;25.38;10.57;;;6.90;99.90;;;;;;5091184;28;20028;-86
2022/01/17 09:30:13;;;;;;;23.42;12.00;;;6.90;99.90;;;;;;5096189;28;20391;-88
2022/01/17 09:32:39;;;;;;;27.00;11.70;;;7.00;99.90;;;;;;5076011;28;20025;-87
2022/01/17 09:35:06;;;;;;;27.58;11.95;;;7.00;99.90;;;;;;5067080;28;20483;-87
2022/01/17 09:37:33;;;;;;;29.50;12.93;;;7.00;99.90;;;;;;5063130;28;20009;-89
2022/01/17 09:39:59;;;;;;;27.30;12.25;;;7.00;99.90;;;;;;5070655;28;20052;-88
2022/01/17 09:42:25;;;;;;;25.98;12.32;;;7.00;99.90;;;;;;5051184;28;20086;-87
2022/01/17 09:44:51;;;;;;;29.60;11.50;;;7.00;99.90;;;;;;5079286;28;20021;-87
2022/01/17 09:47:18;;;;;;;28.98;11.80;;;7.00;99.90;;;;;;5055350;28;20040;-90
2022/01/17 09:49:54;;;;;;;25.02;10.88;;;7.10;99.90;;;;;;5055903;28;20032;-88
2022/01/17 09:52:34;;;;;;;29.10;10.20;;;7.10;99.90;;;;;;5056238;28;20093;-89
2022/01/17 09:55:15;;;;;;;25.67;9.73;;;7.10;99.90;;;;;;5060159;28;20094;-89
2022/01/17 09:57:56;;;;;;;24.98;9.80;;;7.10;99.90;;;;;;5038633;28;20022;-89
2022/01/17 10:00:27;;;;;;;31.08;9.52;;;7.10;99.90;;;;;;5047695;28;20013;-89
2022/01/17 10:03:00;;;;;;;23.73;9.32;;;7.20;99.90;;;;;;5071883;28;20179;-88
2022/01/17 10:05:27;;;;;;;26.52;9.57;;;7.20;99.90;;;;;;5056499;28;20029;-88
2022/01/17 10:08:00;;;;;;;27.27;8.48;;;7.20;99.90;;;;;;5072104;28;20021;-88
2022/01/17 10:10:44;;;;;;;25.65;7.95;;;7.20;99.90;;;;;;5056058;28;20090;-88
2022/01/17 10:13:27;;;;;;;30.63;7.93;;;7.20;99.90;;;;;;5056030;28;20036;-88
2022/01/17 10:16:15;;;;;;;37.10;8.98;;;7.20;99.90;;;;;;5055717;28;20037;-89
2022/01/17 10:19:01;;;;;;;26.83;7.70;;;7.30;99.90;;;;;;5072521;28;20028;-89
2022/01/17 10:21:54;;;;;;;26.60;7.63;;;7.30;99.90;;;;;;5055003;28;20021;-88
2022/01/17 10:24:27;;;;;;;23.90;7.07;;;7.30;99.90;;;;;;5055560;28;20498;-89
2022/01/17 10:27:26;;;;;;;23.27;6.00;;;7.30;99.90;;;;;;5055268;28;20021;-88
2022/01/17 10:35:31;;;;;;;30.17;6.35;;;7.40;99.90;;;;;;5060609;28;20533;-92
2022/01/17 10:38:09;;;;;;;29.13;6.60;;;7.40;99.90;;;;;;5062340;28;20079;-88
2022/01/17 10:40:39;;;;;;;36.22;7.97;;;7.40;99.90;;;;;;5061571;28;20055;-88
2022/01/17 10:43:25;;;;;;;26.20;6.63;;;7.40;99.90;;;;;;5070558;28;20339;-87
2022/01/17 10:45:53;;;;;;;23.17;5.80;;;7.40;99.90;;;;;;5068060;28;20459;-88
2022/01/17 10:48:19;;;;;;;29.17;6.95;;;7.50;99.90;;;;;;5061735;28;20021;-89
2022/01/17 10:50:50;;;;;;;25.20;6.43;;;7.50;99.90;;;;;;5065254;28;20092;-88
2022/01/17 10:53:18;;;;;;;25.30;6.20;;;7.50;99.90;;;;;;5068681;28;20033;-85
2022/01/17 10:55:48;;;;;;;24.83;6.10;;;7.50;99.90;;;;;;5061101;28;20036;-86
2022/01/17 10:58:29;;;;;;;27.60;6.78;;;7.50;99.90;;;;;;5059512;28;20079;-89
2022/01/17 11:01:04;;;;;;;24.52;6.40;;;7.60;99.90;;;;;;5054760;28;20062;-88
2022/01/17 11:03:32;;;;;;;24.20;5.88;;;7.60;99.90;;;;;;5055905;28;20037;-89
2022/01/17 11:06:02;;;;;;;29.15;6.88;;;7.60;99.90;;;;;;5054614;28;20025;-88
2022/01/17 11:08:29;;;;;;;23.33;5.60;;;7.60;99.90;;;;;;5054378;28;20053;-88
2022/01/17 11:11:01;;;;;;;22.80;5.63;;;7.60;99.90;;;;;;5037890;28;20036;-88
2022/01/17 11:13:30;;;;;;;28.73;6.25;;;7.70;99.90;;;;;;5054025;28;20513;-91
2022/01/17 11:15:59;;;;;;;20.35;5.40;;;7.70;99.90;;;;;;5054017;28;20024;-88
2022/01/17 11:18:28;;;;;;;27.35;6.00;;;7.70;99.90;;;;;;5054074;28;20074;-86
2022/01/17 11:21:10;;;;;;;23.90;6.55;;;7.80;99.90;;;;;;5055647;28;20049;-88
2022/01/17 11:23:37;;;;;;;25.67;5.40;;;7.80;99.90;;;;;;5053922;28;20036;-88
2022/01/17 11:26:05;;;;;;;22.02;5.78;;;7.80;99.90;;;;;;5053709;28;20115;-87
2022/01/17 11:28:33;;;;;;;22.00;5.32;;;7.80;99.90;;;;;;5053216;28;20066;-88
2022/01/17 11:31:01;;;;;;;27.02;6.13;;;7.90;99.90;;;;;;5054387;28;20025;-89
2022/01/17 11:33:27;;;;;;;23.67;5.80;;;7.90;99.90;;;;;;5053801;28;20029;-89
2022/01/17 11:35:54;;;;;;;26.50;6.07;;;7.90;99.90;;;;;;5070462;28;20025;-87
2022/01/17 11:38:27;;;;;;;26.92;5.40;;;8.00;99.90;;;;;;5053793;28;20032;-89
2022/01/17 11:40:54;;;;;;;28.88;5.75;;;8.00;99.90;;;;;;5053552;28;20075;-88
2022/01/17 11:43:34;;;;;;;26.45;5.90;;;8.00;99.90;;;;;;5052465;28;20029;-88
2022/01/17 11:46:17;;;;;;;27.23;6.50;;;8.00;99.90;;;;;;5052711;28;20037;-89
2022/01/17 11:49:06;;;;;;;27.60;4.63;;;8.00;99.90;;;;;;5054583;28;20020;-91
2022/01/17 11:51:50;;;;;;;38.72;6.57;;;8.10;99.90;;;;;;5052539;28;20029;-90
2022/01/17 11:54:44;;;;;;;23.90;5.18;;;8.10;99.90;;;;;;5053179;28;20028;-90
2022/01/17 11:57:21;;;;;;;24.00;5.38;;;8.10;99.90;;;;;;5068010;28;20043;-89
2022/01/17 11:59:48;;;;;;;25.50;4.25;;;8.10;99.90;;;;;;5053384;28;20025;-89
2022/01/17 12:02:34;;;;;;;24.30;4.55;;;8.20;99.90;;;;;;5053964;28;20062;-89
2022/01/17 12:05:03;;;;;;;31.35;6.53;;;8.20;99.90;;;;;;5054285;28;20132;-88
2022/01/17 12:07:52;;;;;;;25.25;4.85;;;8.20;99.90;;;;;;5036808;28;20057;-90
2022/01/17 12:10:20;;;;;;;21.58;5.40;;;8.30;99.90;;;;;;5052993;28;20082;-91
2022/01/17 12:13:15;;;;;;;27.42;5.07;;;8.30;99.90;;;;;;5053210;28;20025;-89
2022/01/17 12:16:30;;;;;;;28.38;4.82;;;8.30;99.90;;;;;;5069842;28;20049;-90
2022/01/17 12:19:03;;;;;;;27.95;5.07;;;8.40;99.90;;;;;;5052788;28;20017;-89
2022/01/17 12:21:53;;;;;;;29.83;6.47;;;8.40;99.90;;;;;;5054139;28;20025;-88
2022/01/17 12:24:30;;;;;;;23.77;3.85;;;8.40;99.90;;;;;;5053550;28;20098;-91
2022/01/17 12:27:00;;;;;;;29.88;6.07;;;8.50;99.90;;;;;;5052968;28;20104;-89
2022/01/17 12:29:37;;;;;;;21.02;4.00;;;8.50;99.90;;;;;;5053297;28;20111;-89
2022/01/17 12:32:05;;;;;;;21.92;4.95;;;8.50;99.90;;;;;;5053726;28;20557;-89
2022/01/17 12:34:40;;;;;;;32.22;5.55;;;8.60;99.90;;;;;;5036783;28;20036;-89
2022/01/17 12:37:36;;;;;;;26.85;5.13;;;8.60;99.90;;;;;;5052758;28;20546;-89
2022/01/17 12:40:19;;;;;;;28.63;4.05;;;8.70;99.90;;;;;;5053491;28;20459;-90
2022/01/17 12:42:56;;;;;;;22.00;3.45;;;8.70;99.90;;;;;;5054516;28;20025;-89
2022/01/17 12:46:02;;;;;;;27.83;4.35;;;8.80;99.90;;;;;;5056530;28;20036;-87
2022/01/17 12:48:29;;;;;;;28.75;4.72;;;8.80;99.90;;;;;;5065402;28;20044;-87
2022/01/17 12:50:57;;;;;;;21.67;3.70;;;8.80;99.90;;;;;;5068804;28;20025;-87
2022/01/17 12:53:25;;;;;;;26.98;4.70;;;8.90;99.90;;;;;;5055528;28;20021;-87
2022/01/17 12:55:53;;;;;;;24.05;4.55;;;8.90;99.90;;;;;;5062074;28;20061;-87
2022/01/17 12:58:21;;;;;;;27.05;4.68;;;8.90;99.90;;;;;;5068598;28;20021;-88
2022/01/17 13:00:51;;;;;;;30.30;4.32;;;8.90;99.90;;;;;;5054497;28;20111;-87
2022/01/17 13:03:18;;;;;;;25.13;3.78;;;9.00;99.90;;;;;;5052482;28;20029;-86
2022/01/17 13:05:45;;;;;;;28.55;5.00;;;9.00;99.90;;;;;;5035801;28;20063;-85
2022/01/17 13:08:11;;;;;;;25.92;3.80;;;9.00;99.90;;;;;;5035917;28;20029;-88
2022/01/17 13:10:37;;;;;;;31.35;4.95;;;9.10;99.90;;;;;;5052306;28;20025;-85
2022/01/17 13:13:03;;;;;;;28.38;4.45;;;9.10;99.90;;;;;;5052285;28;20025;-86
2022/01/17 13:15:29;;;;;;;29.08;5.57;;;9.10;99.90;;;;;;5052266;28;20045;-86
2022/01/17 13:17:57;;;;;;;23.67;4.60;;;9.10;99.90;;;;;;5052489;28;20033;-86
2022/01/17 13:20:26;;;;;;;21.80;3.55;;;9.10;99.90;;;;;;5051929;28;20040;-86
2022/01/17 13:22:59;;;;;;;23.17;3.78;;;9.20;99.90;;;;;;5054930;28;20028;-86
2022/01/17 13:25:26;;;;;;;24.73;3.92;;;9.20;99.90;;;;;;5055999;28;20367;-86
2022/01/17 13:28:02;;;;;;;25.60;4.22;;;9.20;99.90;;;;;;5055861;28;20100;-86
2022/01/17 13:30:33;;;;;;;28.88;3.80;;;9.20;99.90;;;;;;5057070;28;20024;-86
2022/01/17 13:33:03;;;;;;;;;;;9.30;99.90;;;;;;5057033;28;20040;-86
2022/01/17 13:35:30;;;;;;;22.67;3.85;;;9.30;99.90;;;;;;5072169;28;19928;-86
2022/01/17 13:38:25;;;;;;;33.55;5.45;;;9.30;99.90;;;;;;5055585;28;20029;-86
2022/01/17 13:40:56;;;;;;;23.95;3.55;;;9.30;99.90;;;;;;5046682;28;20072;-87
2022/01/17 13:43:22;;;;;;;31.17;5.18;;;9.30;99.90;;;;;;5056215;28;20094;-87
2022/01/17 13:45:51;;;;;;;25.80;3.78;;;9.30;99.90;;;;;;5040325;28;20100;-88
2022/01/17 13:48:25;;;;;;;31.33;4.75;;;9.30;99.90;;;;;;5069836;28;20017;-85
2022/01/17 13:51:02;;;;;;;30.10;4.95;;;9.30;99.90;;;;;;5070907;28;20029;-86
2022/01/17 13:53:33;;;;;;;30.70;4.88;;;9.30;99.90;;;;;;5063354;28;20039;-86
2022/01/17 13:56:00;;;;;;;;;;;9.30;99.90;;;;;;5061378;28;20102;-87
2022/01/17 13:58:28;;;;;;;29.35;4.32;;;9.30;99.90;;;;;;5073910;28;19936;-87
2022/01/17 14:01:00;;;;;;;26.00;5.78;;;9.30;99.90;;;;;;5058774;28;20024;-85
2022/01/17 14:03:28;;;;;;;35.35;5.53;;;9.40;99.90;;;;;;5057245;28;20032;-89
2022/01/17 14:06:05;;;;;;;37.72;5.35;;;9.40;99.90;;;;;;5055449;28;20021;-86
2022/01/17 14:08:34;;;;;;;28.30;4.07;;;9.40;99.90;;;;;;5072438;28;20025;-88
2022/01/17 14:11:05;;;;;;;31.35;5.15;;;9.40;99.90;;;;;;5072477;28;20025;-85
2022/01/17 14:13:42;;;;;;;;;;;9.40;99.90;;;;;;5055732;28;20064;-87
2022/01/17 14:16:30;;;;;;;31.35;5.60;;;9.40;99.90;;;;;;5056483;28;20003;-86
2022/01/17 14:19:05;;;;;;;30.33;5.13;;;9.40;99.90;;;;;;5054556;28;20072;-87
2022/01/17 14:21:32;;;;;;;34.85;4.57;;;9.40;99.90;;;;;;5055311;28;20037;-86
2022/01/17 14:24:09;;;;;;;35.50;4.60;;;9.40;99.90;;;;;;5055188;28;20356;-87
2022/01/17 14:26:37;;;;;;;25.30;4.35;;;9.40;99.90;;;;;;5058299;28;20029;-87
2022/01/17 14:29:07;;;;;;;29.52;4.88;;;9.50;99.90;;;;;;5059680;28;20028;-88
2022/01/17 14:31:35;;;;;;;32.08;4.68;;;9.40;99.90;;;;;;5044165;28;20170;-87
2022/01/17 14:34:25;;;;;;;30.88;4.63;;;9.40;99.90;;;;;;5056579;28;20021;-87
2022/01/17 14:37:06;;;;;;;23.83;4.97;;;9.50;99.90;;;;;;5060051;28;20021;-92
2022/01/17 14:39:37;;;;;;;26.85;5.25;;;9.50;99.90;;;;;;5057920;28;20100;-86
2022/01/17 14:42:22;;;;;;;22.45;4.05;;;9.50;99.90;;;;;;5056148;28;20036;-87
2022/01/17 14:44:51;;;;;;;33.38;3.97;;;9.50;99.90;;;;;;5055810;28;20060;-87
2022/01/17 14:47:20;;;;;;;30.25;4.97;;;9.50;99.90;;;;;;5054032;28;20021;-86
2022/01/17 14:49:52;;;;;;;32.20;4.88;;;9.50;99.90;;;;;;5054059;28;20112;-85
2022/01/17 14:52:21;;;;;;;35.20;5.20;;;9.60;99.90;;;;;;5055024;28;20108;-85
2022/01/17 15:00:15;;;;;;;24.00;3.70;;;9.50;99.90;;;;;;5055714;28;20441;-88
2022/01/17 15:02:59;;;;;;;32.53;4.40;;;9.50;99.90;;;;;;5054051;28;20029;-88